createdAt,value
2022-10-07T00:00:27.720Z,99.99
2022-10-07T00:01:27.768Z,99.99
2022-10-07T00:02:27.752Z,99.99
2022-10-07T00:03:27.665Z,99.99
2022-10-07T00:04:27.679Z,99.99
2022-10-07T00:05:27.675Z,99.99
2022-10-07T00:06:27.651Z,99.99
2022-10-07T00:07:27.638Z,99.99
2022-10-07T00:08:27.629Z,99.99
2022-10-07T00:09:27.626Z,99.99
2022-10-07T00:10:27.642Z,99.99
2022-10-07T00:11:27.601Z,99.99
2022-10-07T00:12:27.592Z,99.99
2022-10-07T00:13:27.585Z,99.99
2022-10-07T00:14:27.584Z,99.99
2022-10-07T00:15:27.604Z,99.99
2022-10-07T00:16:27.612Z,99.99
2022-10-07T00:17:27.564Z,99.99
2022-10-07T00:18:27.549Z,99.99
2022-10-07T00:19:27.543Z,99.99
2022-10-07T00:20:27.565Z,99.99
2022-10-07T00:21:27.521Z,99.99
2022-10-07T00:22:27.525Z,99.99
2022-10-07T00:23:27.511Z,99.99
2022-10-07T00:24:27.505Z,99.99
2022-10-07T00:25:27.523Z,99.99
2022-10-07T00:26:27.481Z,99.99
2022-10-07T00:27:27.468Z,99.99
2022-10-07T00:28:27.552Z,99.99
2022-10-07T00:29:27.465Z,99.99
2022-10-07T00:30:27.511Z,99.99
2022-10-07T00:31:27.449Z,99.99
2022-10-07T00:32:27.435Z,99.99
2022-10-07T00:33:27.427Z,99.99
2022-10-07T00:34:27.418Z,99.99
2022-10-07T00:35:27.376Z,99.99
2022-10-07T00:36:27.356Z,99.99
2022-10-07T00:37:27.347Z,99.99
2022-10-07T00:38:27.285Z,99.99
2022-10-07T00:39:27.275Z,99.99
2022-10-07T00:40:27.296Z,99.99
2022-10-07T00:41:27.254Z,99.99
2022-10-07T00:42:27.247Z,99.99
2022-10-07T00:43:27.247Z,99.99
2022-10-07T00:44:27.233Z,99.99
2022-10-07T00:45:27.251Z,99.99
2022-10-07T00:46:27.233Z,99.99
2022-10-07T00:47:27.210Z,99.99
2022-10-07T00:48:27.197Z,99.99
2022-10-07T00:49:27.229Z,99.99
2022-10-07T00:50:27.231Z,99.99
2022-10-07T00:51:27.172Z,99.99
2022-10-07T00:52:27.166Z,99.99
2022-10-07T00:53:27.156Z,99.99
2022-10-07T00:54:27.152Z,99.99
2022-10-07T00:55:27.184Z,99.99
2022-10-07T00:56:27.129Z,99.99
2022-10-07T00:57:27.122Z,99.99
2022-10-07T00:58:27.121Z,99.99
2022-10-07T00:59:27.107Z,99.99
2022-10-07T01:00:27.102Z,99.99
2022-10-07T01:01:27.169Z,99.99
2022-10-07T01:02:27.146Z,99.99
2022-10-07T01:03:27.122Z,99.99
2022-10-07T01:04:27.069Z,99.99
2022-10-07T01:05:27.063Z,99.99
2022-10-07T01:06:27.081Z,99.99
2022-10-07T01:07:27.035Z,99.99
2022-10-07T01:08:27.078Z,99.99
2022-10-07T01:09:27.192Z,99.99
2022-10-07T01:10:27.013Z,99.99
2022-10-07T01:11:27.036Z,99.99
2022-10-07T01:12:26.992Z,99.99
2022-10-07T01:13:26.990Z,99.99
2022-10-07T01:14:26.980Z,99.99
2022-10-07T01:15:26.975Z,99.99
2022-10-07T01:16:27.064Z,99.99
2022-10-07T01:17:26.958Z,99.99
2022-10-07T01:18:26.942Z,99.99
2022-10-07T01:19:26.948Z,99.99
2022-10-07T01:20:26.931Z,99.99
2022-10-07T01:21:26.950Z,99.99
2022-10-07T01:22:26.916Z,99.99
2022-10-07T01:23:26.911Z,99.99
2022-10-07T01:24:26.947Z,99.99
2022-10-07T01:25:26.893Z,99.99
2022-10-07T01:26:26.923Z,99.99
2022-10-07T01:27:26.884Z,99.99
2022-10-07T01:28:26.924Z,99.99
2022-10-07T01:29:26.862Z,99.99
2022-10-07T01:30:26.862Z,99.99
2022-10-07T01:31:26.874Z,99.99
2022-10-07T01:32:26.845Z,99.99
2022-10-07T01:33:26.829Z,99.99
2022-10-07T01:34:26.818Z,99.99
2022-10-07T01:35:26.815Z,99.99
2022-10-07T01:36:26.834Z,99.99
2022-10-07T01:37:26.806Z,99.99
2022-10-07T01:38:26.794Z,99.99
2022-10-07T01:39:26.781Z,99.99
2022-10-07T01:40:26.777Z,99.99
2022-10-07T01:41:26.801Z,99.99
2022-10-07T01:42:26.794Z,99.99
2022-10-07T01:43:26.749Z,99.99
2022-10-07T01:44:26.744Z,99.99
2022-10-07T01:45:26.740Z,99.99
2022-10-07T01:46:26.787Z,99.99
2022-10-07T01:47:26.722Z,99.99
2022-10-07T01:48:26.740Z,99.99
2022-10-07T01:49:26.704Z,99.99
2022-10-07T01:50:26.698Z,99.99
2022-10-07T01:51:26.709Z,99.99
2022-10-07T01:52:27.795Z,99.99
2022-10-07T01:53:26.673Z,99.99
2022-10-07T01:54:27.661Z,99.99
2022-10-07T01:55:26.653Z,99.99
2022-10-07T01:56:26.684Z,99.99
2022-10-07T01:57:26.640Z,99.99
2022-10-07T01:58:26.638Z,99.99
2022-10-07T01:59:26.669Z,99.99
2022-10-07T02:00:26.616Z,99.99
2022-10-07T02:01:26.688Z,99.99
2022-10-07T02:02:26.625Z,99.99
2022-10-07T02:03:26.642Z,99.99
2022-10-07T02:04:26.579Z,99.99
2022-10-07T02:05:26.573Z,99.99
2022-10-07T02:06:26.560Z,99.99
2022-10-07T02:07:26.591Z,99.99
2022-10-07T02:08:26.557Z,99.99
2022-10-07T02:09:26.547Z,99.99
2022-10-07T02:10:26.527Z,99.99
2022-10-07T02:11:26.521Z,99.99
2022-10-07T02:12:26.542Z,99.99
2022-10-07T02:13:26.506Z,99.99
2022-10-07T02:14:26.495Z,99.99
2022-10-07T02:15:26.503Z,99.99
2022-10-07T02:16:26.555Z,99.99
2022-10-07T02:17:26.500Z,99.99
2022-10-07T02:18:26.464Z,99.99
2022-10-07T02:19:26.461Z,99.99
2022-10-07T02:20:26.457Z,99.99
2022-10-07T02:21:26.442Z,99.99
2022-10-07T02:22:26.461Z,99.99
2022-10-07T02:23:26.422Z,99.99
2022-10-07T02:24:26.418Z,99.99
2022-10-07T02:25:26.408Z,99.99
2022-10-07T02:26:26.389Z,99.99
2022-10-07T02:27:26.419Z,99.99
2022-10-07T02:28:26.416Z,99.99
2022-10-07T02:29:26.372Z,99.99
2022-10-07T02:30:26.371Z,99.99
2022-10-07T02:31:26.414Z,99.99
2022-10-07T02:32:26.378Z,99.99
2022-10-07T02:33:26.342Z,99.99
2022-10-07T02:34:26.343Z,99.99
2022-10-07T02:35:26.333Z,99.99
2022-10-07T02:36:26.324Z,99.99
2022-10-07T02:37:26.377Z,99.99
2022-10-07T02:38:26.312Z,99.99
2022-10-07T02:39:26.292Z,99.99
2022-10-07T02:40:26.291Z,99.99
2022-10-07T02:41:26.278Z,99.99
2022-10-07T02:42:26.300Z,99.99
2022-10-07T02:43:26.267Z,99.99
2022-10-07T02:44:26.257Z,99.99
2022-10-07T02:45:27.047Z,99.99
2022-10-07T02:46:27.292Z,99.99
2022-10-07T02:47:26.253Z,99.99
2022-10-07T02:48:26.223Z,99.99
2022-10-07T02:49:26.258Z,99.99
2022-10-07T02:50:26.205Z,99.99
2022-10-07T02:51:26.201Z,99.99
2022-10-07T02:52:26.220Z,99.99
2022-10-07T02:53:26.182Z,99.99
2022-10-07T02:54:26.170Z,99.99
2022-10-07T02:55:26.178Z,99.99
2022-10-07T02:56:26.154Z,99.99
2022-10-07T02:57:26.169Z,99.99
2022-10-07T02:58:26.133Z,99.99
2022-10-07T02:59:26.133Z,99.99
2022-10-07T03:00:26.124Z,99.99
2022-10-07T03:01:26.164Z,99.99
2022-10-07T03:02:26.135Z,99.99
2022-10-07T03:03:26.129Z,99.99
2022-10-07T03:04:26.092Z,99.99
2022-10-07T03:05:26.132Z,99.99
2022-10-07T03:06:26.078Z,99.99
2022-10-07T03:07:26.105Z,99.99
2022-10-07T03:08:26.060Z,99.99
2022-10-07T03:09:26.041Z,99.99
2022-10-07T03:10:26.041Z,99.99
2022-10-07T03:11:26.054Z,99.99
2022-10-07T03:12:26.024Z,99.99
2022-10-07T03:13:26.042Z,99.99
2022-10-07T03:14:26.000Z,99.99
2022-10-07T03:15:25.995Z,99.99
2022-10-07T03:16:26.060Z,99.99
2022-10-07T03:17:25.998Z,99.99
2022-10-07T03:18:26.042Z,99.99
2022-10-07T03:19:25.962Z,99.99
2022-10-07T03:20:25.951Z,99.99
2022-10-07T03:21:25.944Z,99.99
2022-10-07T03:22:25.993Z,99.99
2022-10-07T03:23:25.957Z,99.99
2022-10-07T03:24:25.918Z,99.99
2022-10-07T03:25:25.922Z,99.99
2022-10-07T03:26:25.899Z,99.99
2022-10-07T03:27:26.015Z,99.99
2022-10-07T03:28:25.974Z,99.99
2022-10-07T03:29:25.882Z,99.99
2022-10-07T03:30:25.871Z,99.99
2022-10-07T03:31:25.952Z,99.99
2022-10-07T03:32:25.917Z,99.99
2022-10-07T03:33:25.846Z,99.99
2022-10-07T03:34:25.836Z,99.99
2022-10-07T03:35:25.825Z,99.99
2022-10-07T03:36:25.827Z,99.99
2022-10-07T03:37:26.336Z,99.99
2022-10-07T03:38:25.804Z,99.99
2022-10-07T03:39:25.798Z,99.99
2022-10-07T03:40:25.792Z,99.99
2022-10-07T03:41:25.774Z,99.99
2022-10-07T03:42:25.788Z,99.99
2022-10-07T03:43:25.791Z,99.99
2022-10-07T03:44:25.756Z,99.99
2022-10-07T03:45:25.743Z,99.99
2022-10-07T03:46:25.754Z,99.99
2022-10-07T03:47:25.735Z,99.99
2022-10-07T03:48:25.747Z,99.99
2022-10-07T03:49:25.708Z,99.99
2022-10-07T03:50:25.695Z,99.99
2022-10-07T03:51:25.690Z,99.99
2022-10-07T03:52:25.716Z,99.99
2022-10-07T03:53:25.743Z,99.99
2022-10-07T03:54:25.669Z,99.99
2022-10-07T03:55:25.659Z,99.99
2022-10-07T03:56:25.652Z,99.99
2022-10-07T03:57:25.643Z,99.99
2022-10-07T03:58:25.670Z,99.99
2022-10-07T03:59:25.629Z,99.99
2022-10-07T04:00:25.623Z,99.99
2022-10-07T04:01:25.694Z,99.99
2022-10-07T04:02:25.605Z,99.99
2022-10-07T04:03:25.713Z,99.99
2022-10-07T04:04:25.589Z,99.99
2022-10-07T04:05:25.579Z,99.99
2022-10-07T04:06:25.578Z,99.99
2022-10-07T04:07:25.571Z,99.99
2022-10-07T04:08:25.588Z,99.99
2022-10-07T04:09:25.543Z,99.99
2022-10-07T04:10:25.540Z,99.99
2022-10-07T04:11:25.545Z,99.99
2022-10-07T04:12:25.521Z,99.99
2022-10-07T04:13:25.544Z,99.99
2022-10-07T04:14:25.532Z,99.99
2022-10-07T04:15:25.492Z,99.99
2022-10-07T04:16:25.538Z,99.99
2022-10-07T04:17:25.483Z,99.99
2022-10-07T04:18:25.522Z,99.99
2022-10-07T04:19:25.464Z,99.99
2022-10-07T04:20:25.460Z,99.99
2022-10-07T04:21:25.447Z,99.99
2022-10-07T04:22:25.436Z,99.99
2022-10-07T04:23:25.472Z,99.99
2022-10-07T04:24:25.424Z,99.99
2022-10-07T04:25:25.416Z,99.99
2022-10-07T04:26:25.413Z,99.99
2022-10-07T04:27:50.050Z,99.99
2022-10-07T04:28:27.471Z,99.99
2022-10-07T04:29:25.387Z,99.99
2022-10-07T04:30:25.373Z,99.99
2022-10-07T04:31:25.402Z,99.99
2022-10-07T04:32:25.352Z,99.99
2022-10-07T04:33:25.378Z,99.99
2022-10-07T04:34:25.346Z,99.99
2022-10-07T04:35:25.330Z,99.99
2022-10-07T04:36:25.332Z,99.99
2022-10-07T04:37:25.315Z,99.99
2022-10-07T04:38:28.241Z,99.99
2022-10-07T04:39:42.757Z,99.99
2022-10-07T04:40:27.290Z,99.99
2022-10-07T04:41:25.283Z,99.99
2022-10-07T04:42:25.270Z,99.99
2022-10-07T04:43:25.292Z,99.99
2022-10-07T04:44:25.254Z,99.99
2022-10-07T04:45:25.248Z,99.99
2022-10-07T04:46:25.349Z,99.99
2022-10-07T04:47:25.232Z,99.99
2022-10-07T04:48:25.267Z,99.99
2022-10-07T04:49:25.212Z,99.99
2022-10-07T04:50:25.208Z,99.99
2022-10-07T04:51:25.203Z,99.99
2022-10-07T04:52:25.194Z,99.99
2022-10-07T04:53:25.210Z,99.99
2022-10-07T04:54:25.172Z,99.99
2022-10-07T04:55:25.168Z,99.99
2022-10-07T04:56:25.168Z,99.99
2022-10-07T04:57:25.160Z,99.99
2022-10-07T04:58:25.175Z,99.99
2022-10-07T04:59:28.015Z,99.99
2022-10-07T05:00:26.129Z,99.99
2022-10-07T05:01:25.174Z,99.99
2022-10-07T05:02:25.125Z,99.99
2022-10-07T05:03:25.123Z,99.99
2022-10-07T05:04:25.092Z,99.99
2022-10-07T05:05:25.088Z,99.99
2022-10-07T05:06:25.186Z,99.99
2022-10-07T05:09:31.426Z,99.99
2022-10-07T05:10:31.420Z,99.99
2022-10-07T05:11:31.412Z,99.99
2022-10-07T05:12:31.400Z,99.99
2022-10-07T05:13:31.428Z,99.99
2022-10-07T05:14:31.388Z,99.99
2022-10-07T05:15:31.383Z,99.99
2022-10-07T05:16:31.451Z,99.99
2022-10-07T05:17:31.366Z,99.99
2022-10-07T05:18:31.377Z,99.99
2022-10-07T05:19:31.346Z,99.99
2022-10-07T05:20:31.332Z,99.99
2022-10-07T05:21:31.329Z,99.99
2022-10-07T05:22:31.319Z,99.99
2022-10-07T05:23:31.337Z,99.99
2022-10-07T05:24:31.302Z,99.99
2022-10-07T05:25:31.296Z,99.99
2022-10-07T05:26:32.435Z,99.99
2022-10-07T05:27:32.421Z,99.99
2022-10-07T05:28:32.522Z,99.99
2022-10-07T05:29:32.398Z,99.99
2022-10-07T05:30:32.408Z,99.99
2022-10-07T05:31:32.463Z,99.99
2022-10-07T05:32:32.382Z,99.99
2022-10-07T05:33:32.409Z,99.99
2022-10-07T05:34:32.362Z,99.99
2022-10-07T05:35:32.355Z,99.99
2022-10-07T05:36:32.346Z,99.99
2022-10-07T05:37:32.364Z,99.99
2022-10-07T05:38:32.366Z,99.99
2022-10-07T05:39:32.322Z,99.99
2022-10-07T05:40:32.311Z,99.99
2022-10-07T05:41:32.304Z,99.99
2022-10-07T05:42:32.293Z,99.99
2022-10-07T05:43:32.296Z,99.99
2022-10-07T05:44:32.305Z,99.99
2022-10-07T05:45:32.322Z,99.99
2022-10-07T05:46:32.255Z,99.99
2022-10-07T05:47:33.259Z,99.99
2022-10-07T05:48:36.635Z,99.99
2022-10-07T05:49:34.263Z,99.99
2022-10-07T05:50:32.228Z,99.99
2022-10-07T05:51:32.264Z,99.99
2022-10-07T05:52:32.233Z,99.99
2022-10-07T05:53:32.212Z,99.99
2022-10-07T05:54:32.223Z,99.99
2022-10-07T05:55:35.672Z,99.99
2022-10-07T05:56:33.182Z,99.99
2022-10-07T05:57:32.176Z,99.99
2022-10-07T05:58:32.167Z,99.99
2022-10-07T05:59:32.206Z,99.99
2022-10-07T06:00:32.144Z,99.99
2022-10-07T06:01:32.137Z,99.99
2022-10-07T06:02:33.193Z,99.99
2022-10-07T06:03:32.124Z,99.99
2022-10-07T06:04:32.146Z,99.99
2022-10-07T06:05:32.123Z,99.99
2022-10-07T06:06:32.095Z,99.99
2022-10-07T06:07:32.084Z,99.99
2022-10-07T06:08:32.087Z,99.99
2022-10-07T06:09:32.116Z,99.99
2022-10-07T06:10:32.061Z,99.99
2022-10-07T06:11:32.061Z,99.99
2022-10-07T06:13:04.606Z,99.99
2022-10-07T06:13:32.039Z,99.99
2022-10-07T06:14:32.136Z,99.99
2022-10-07T06:15:32.023Z,99.99
2022-10-07T06:16:32.087Z,99.99
2022-10-07T06:17:32.016Z,99.99
2022-10-07T06:18:32.002Z,99.99
2022-10-07T06:19:32.022Z,99.99
2022-10-07T06:20:31.990Z,99.99
2022-10-07T06:21:31.973Z,99.99
2022-10-07T06:22:31.985Z,99.99
2022-10-07T06:23:31.959Z,99.99
2022-10-07T06:24:31.981Z,99.99
2022-10-07T06:25:31.950Z,99.99
2022-10-07T06:26:31.938Z,99.99
2022-10-07T06:27:31.927Z,99.99
2022-10-07T06:28:31.981Z,99.99
2022-10-07T06:29:31.936Z,99.99
2022-10-07T06:30:31.912Z,99.99
2022-10-07T06:31:31.917Z,99.99
2022-10-07T06:32:31.886Z,99.99
2022-10-07T06:33:31.883Z,99.99
2022-10-07T06:34:31.923Z,99.99
2022-10-07T06:35:31.867Z,99.99
2022-10-07T06:36:31.852Z,99.99
2022-10-07T06:37:31.843Z,99.99
2022-10-07T06:38:31.839Z,99.99
2022-10-07T06:39:31.835Z,99.99
2022-10-07T06:40:31.851Z,99.99
2022-10-07T06:41:31.812Z,99.99
2022-10-07T06:42:31.807Z,99.99
2022-10-07T06:43:31.798Z,99.99
2022-10-07T06:44:31.792Z,99.99
2022-10-07T06:45:31.957Z,99.99
2022-10-07T06:46:31.842Z,99.99
2022-10-07T06:47:31.854Z,99.99
2022-10-07T06:48:31.749Z,99.99
2022-10-07T06:49:31.744Z,99.99
2022-10-07T06:50:31.802Z,99.99
2022-10-07T06:51:31.727Z,99.99
2022-10-07T06:52:31.719Z,99.99
2022-10-07T06:53:31.718Z,99.99
2022-10-07T06:54:32.703Z,99.99
2022-10-07T06:55:31.734Z,99.99
2022-10-07T06:56:31.690Z,99.99
2022-10-07T06:57:45.347Z,99.99
2022-10-07T06:58:34.204Z,99.99
2022-10-07T06:59:31.660Z,99.99
2022-10-07T07:00:31.779Z,99.99
2022-10-07T07:01:31.700Z,99.99
2022-10-07T07:02:32.717Z,99.99
2022-10-07T07:03:31.636Z,99.99
2022-10-07T07:04:31.629Z,99.99
2022-10-07T07:05:31.643Z,99.99
2022-10-07T07:06:31.612Z,99.99
2022-10-07T07:07:31.617Z,99.99
2022-10-07T07:08:31.600Z,99.99
2022-10-07T07:09:31.588Z,99.99
2022-10-07T07:10:31.603Z,99.99
2022-10-07T07:11:31.587Z,99.99
2022-10-07T07:12:31.558Z,99.99
2022-10-07T07:13:31.554Z,99.99
2022-10-07T07:14:31.548Z,99.99
2022-10-07T07:15:31.566Z,99.99
2022-10-07T07:16:31.564Z,99.99
2022-10-07T07:17:31.523Z,99.99
2022-10-07T07:18:31.530Z,99.99
2022-10-07T07:19:31.505Z,99.99
2022-10-07T07:20:31.523Z,99.99
2022-10-07T07:21:31.487Z,99.99
2022-10-07T07:22:31.482Z,99.99
2022-10-07T07:23:31.479Z,99.99
2022-10-07T07:24:31.465Z,99.99
2022-10-07T07:25:31.479Z,99.99
2022-10-07T07:26:31.451Z,99.99
2022-10-07T07:27:31.446Z,99.99
2022-10-07T07:28:31.545Z,99.99
2022-10-07T07:29:31.418Z,99.99
2022-10-07T07:30:31.519Z,99.99
2022-10-07T07:31:31.414Z,99.99
2022-10-07T07:32:31.408Z,99.99
2022-10-07T07:33:31.386Z,99.99
2022-10-07T07:34:31.374Z,99.99
2022-10-07T07:35:31.398Z,99.99
2022-10-07T07:36:31.366Z,99.99
2022-10-07T07:37:31.355Z,99.99
2022-10-07T07:38:31.349Z,99.99
2022-10-07T07:39:31.343Z,99.99
2022-10-07T07:40:31.371Z,99.99
2022-10-07T07:41:31.328Z,99.99
2022-10-07T07:42:31.314Z,99.99
2022-10-07T07:43:31.333Z,99.99
2022-10-07T07:44:34.744Z,99.99
2022-10-07T07:45:32.341Z,99.99
2022-10-07T07:46:31.283Z,99.99
2022-10-07T07:47:31.274Z,99.99
2022-10-07T07:48:31.260Z,99.99
2022-10-07T07:49:31.255Z,99.76
2022-10-07T07:50:31.247Z,98.27
2022-10-07T07:51:31.263Z,97.81
2022-10-07T07:52:31.231Z,97.81
2022-10-07T07:53:31.226Z,97.97
2022-10-07T07:54:31.223Z,97.15
2022-10-07T07:55:31.211Z,96.22
2022-10-07T07:56:31.231Z,95.77
2022-10-07T07:57:31.190Z,95.81
2022-10-07T07:58:31.181Z,96.64
2022-10-07T07:59:31.179Z,97.41
2022-10-07T08:00:31.174Z,96.23
2022-10-07T08:01:31.221Z,96.95
2022-10-07T08:02:31.214Z,97.37
2022-10-07T08:03:31.143Z,95.77
2022-10-07T08:04:31.133Z,96.75
2022-10-07T08:05:31.123Z,95.78
2022-10-07T08:06:31.147Z,95.21
2022-10-07T08:07:31.108Z,95.17
2022-10-07T08:08:31.102Z,95.62
2022-10-07T08:09:31.100Z,96.03
2022-10-07T08:10:31.090Z,95.10
2022-10-07T08:11:31.111Z,96.34
2022-10-07T08:12:31.075Z,96.14
2022-10-07T08:13:31.058Z,95.47
2022-10-07T08:14:31.053Z,95.74
2022-10-07T08:15:31.085Z,95.18
2022-10-07T08:16:31.066Z,94.98
2022-10-07T08:17:31.030Z,93.80
2022-10-07T08:18:31.018Z,94.15
2022-10-07T08:19:31.018Z,95.06
2022-10-07T08:20:31.004Z,94.92
2022-10-07T08:21:31.024Z,95.14
2022-10-07T08:22:30.993Z,92.98
2022-10-07T08:23:30.979Z,92.63
2022-10-07T08:24:34.117Z,92.38
2022-10-07T08:25:30.966Z,92.59
2022-10-07T08:26:30.991Z,91.77
2022-10-07T08:27:30.946Z,92.65
2022-10-07T08:28:31.073Z,91.60
2022-10-07T08:29:30.928Z,91.11
2022-10-07T08:30:30.935Z,88.45
2022-10-07T08:31:30.935Z,89.45
2022-10-07T08:32:30.901Z,89.20
2022-10-07T08:33:30.889Z,89.00
2022-10-07T08:34:30.892Z,88.55
2022-10-07T08:35:30.874Z,88.55
2022-10-07T08:36:30.896Z,89.17
2022-10-07T08:37:30.859Z,90.00
2022-10-07T08:38:30.856Z,84.90
2022-10-07T08:39:30.844Z,82.20
2022-10-07T08:40:30.830Z,80.85
2022-10-07T08:41:30.853Z,82.15
2022-10-07T08:42:30.815Z,82.99
2022-10-07T08:43:30.808Z,82.31
2022-10-07T08:44:30.802Z,79.38
2022-10-07T08:45:30.792Z,78.64
2022-10-07T08:46:30.864Z,77.59
2022-10-07T08:47:30.775Z,77.04
2022-10-07T08:48:30.770Z,75.42
2022-10-07T08:49:30.768Z,73.49
2022-10-07T08:50:30.749Z,73.72
2022-10-07T08:51:30.773Z,73.25
2022-10-07T08:52:30.769Z,70.59
2022-10-07T08:53:49.757Z,71.10
2022-10-07T08:54:30.729Z,70.09
2022-10-07T08:55:30.733Z,67.71
2022-10-07T08:56:30.711Z,67.54
2022-10-07T08:57:30.719Z,66.33
2022-10-07T08:58:30.704Z,66.54
2022-10-07T08:59:30.687Z,65.53
2022-10-07T09:00:30.673Z,65.00
2022-10-07T09:01:30.702Z,64.24
2022-10-07T09:02:30.733Z,60.81
2022-10-07T09:03:30.649Z,61.58
2022-10-07T09:04:30.643Z,61.88
2022-10-07T09:05:30.652Z,60.97
2022-10-07T09:06:30.624Z,63.84
2022-10-07T09:07:30.650Z,62.70
2022-10-07T09:08:30.612Z,62.53
2022-10-07T09:09:30.604Z,62.40
2022-10-07T09:10:30.596Z,62.41
2022-10-07T09:11:30.595Z,61.15
2022-10-07T09:12:30.606Z,59.49
2022-10-07T09:13:30.583Z,57.57
2022-10-07T09:14:30.572Z,58.37
2022-10-07T09:15:30.623Z,59.52
2022-10-07T09:16:30.552Z,59.48
2022-10-07T09:17:34.882Z,60.94
2022-10-07T09:18:31.537Z,60.31
2022-10-07T09:19:30.531Z,60.28
2022-10-07T09:20:30.524Z,60.05
2022-10-07T09:21:30.522Z,58.12
2022-10-07T09:22:30.542Z,58.55
2022-10-07T09:23:30.499Z,59.42
2022-10-07T09:24:30.536Z,59.35
2022-10-07T09:25:30.482Z,59.95
2022-10-07T09:26:30.474Z,58.72
2022-10-07T09:27:30.506Z,58.72
2022-10-07T09:28:30.552Z,58.75
2022-10-07T09:29:30.460Z,59.05
2022-10-07T09:30:30.450Z,58.32
2022-10-07T09:31:30.489Z,57.72
2022-10-07T09:32:30.469Z,58.44
2022-10-07T09:33:30.430Z,57.18
2022-10-07T09:34:30.425Z,57.11
2022-10-07T09:35:30.455Z,56.79
2022-10-07T09:36:30.404Z,56.38
2022-10-07T09:37:30.441Z,57.01
2022-10-07T09:38:30.406Z,60.44
2022-10-07T09:39:30.395Z,57.84
2022-10-07T09:40:30.383Z,57.01
2022-10-07T09:41:31.229Z,57.88
2022-10-07T09:42:31.414Z,58.75
2022-10-07T09:43:30.365Z,57.13
2022-10-07T09:44:30.360Z,55.65
2022-10-07T09:45:36.448Z,54.03
2022-10-07T09:46:43.793Z,54.56
2022-10-07T09:47:31.407Z,54.36
2022-10-07T09:48:30.641Z,54.56
2022-10-07T09:49:30.876Z,54.01
2022-10-07T09:50:31.042Z,50.68
2022-10-07T09:51:32.560Z,53.46
2022-10-07T09:52:31.974Z,53.81
2022-10-07T09:53:37.545Z,54.41
2022-10-07T09:54:31.378Z,54.58
2022-10-07T09:55:31.377Z,54.11
2022-10-07T09:56:30.951Z,52.12
2022-10-07T09:57:31.113Z,52.26
2022-10-07T09:59:04.197Z,52.94
2022-10-07T09:59:31.504Z,53.39
2022-10-07T10:00:30.639Z,52.59
2022-10-07T10:01:30.804Z,52.67
2022-10-07T10:02:30.901Z,51.62
2022-10-07T10:03:30.503Z,52.19
2022-10-07T10:04:30.346Z,50.68
2022-10-07T10:05:30.345Z,51.50
2022-10-07T10:06:30.337Z,51.03
2022-10-07T10:07:30.368Z,50.65
2022-10-07T10:08:30.387Z,50.23
2022-10-07T10:09:30.409Z,50.73
2022-10-07T10:10:30.256Z,51.95
2022-10-07T10:11:32.083Z,52.84
2022-10-07T10:12:30.297Z,53.91
2022-10-07T10:13:30.324Z,52.51
2022-10-07T10:14:49.151Z,51.62
2022-10-07T10:15:30.254Z,51.42
2022-10-07T10:16:30.328Z,50.83
2022-10-07T10:17:30.241Z,50.16
2022-10-07T10:18:30.327Z,50.65
2022-10-07T10:19:34.904Z,50.56
2022-10-07T10:20:32.315Z,52.64
2022-10-07T10:21:30.415Z,50.21
2022-10-07T10:22:30.272Z,47.89
2022-10-07T10:23:30.291Z,48.24
2022-10-07T10:24:30.333Z,48.43
2022-10-07T10:25:31.228Z,47.89
2022-10-07T10:26:33.932Z,48.30
2022-10-07T10:27:31.167Z,48.08
2022-10-07T10:28:30.281Z,47.99
2022-10-07T10:29:30.212Z,48.85
2022-10-07T10:30:30.236Z,49.19
2022-10-07T10:31:30.254Z,50.85
2022-10-07T10:32:30.171Z,50.70
2022-10-07T10:33:30.390Z,49.94
2022-10-07T10:34:30.157Z,50.73
2022-10-07T10:35:30.200Z,49.81
2022-10-07T10:36:30.158Z,49.66
2022-10-07T10:37:30.195Z,48.88
2022-10-07T10:38:30.218Z,46.78
2022-10-07T10:39:30.198Z,46.16
2022-10-07T10:40:30.310Z,46.01
2022-10-07T10:41:30.212Z,46.70
2022-10-07T10:42:31.273Z,51.30
2022-10-07T10:43:30.224Z,49.79
2022-10-07T10:44:30.201Z,49.66
2022-10-07T10:45:30.246Z,46.75
2022-10-07T10:46:30.289Z,46.59
2022-10-07T10:47:30.094Z,44.73
2022-10-07T10:48:30.160Z,45.54
2022-10-07T10:49:30.190Z,45.47
2022-10-07T10:50:30.139Z,44.64
2022-10-07T10:51:30.149Z,44.29
2022-10-07T10:52:30.167Z,44.65
2022-10-07T10:53:30.326Z,44.73
2022-10-07T10:54:30.192Z,44.61
2022-10-07T10:55:30.204Z,45.47
2022-10-07T10:56:30.333Z,45.68
2022-10-07T10:57:30.204Z,46.36
2022-10-07T10:58:30.237Z,45.94
2022-10-07T10:59:30.258Z,46.55
2022-10-07T11:00:30.318Z,46.55
2022-10-07T11:01:30.293Z,46.95
2022-10-07T11:02:30.401Z,45.92
2022-10-07T11:03:33.519Z,46.22
2022-10-07T11:04:31.281Z,45.84
2022-10-07T11:05:30.396Z,45.20
2022-10-07T11:06:30.253Z,45.70
2022-10-07T11:07:31.850Z,46.01
2022-10-07T11:08:33.370Z,46.22
2022-10-07T11:09:33.708Z,45.67
2022-10-07T11:10:44.354Z,47.25
2022-10-07T11:11:30.115Z,46.53
2022-10-07T11:12:30.481Z,48.53
2022-10-07T11:13:38.446Z,46.85
2022-10-07T11:14:30.192Z,48.43
2022-10-07T11:15:30.193Z,46.61
2022-10-07T11:16:30.301Z,45.97
2022-10-07T11:17:30.681Z,46.37
2022-10-07T11:18:31.339Z,45.36
2022-10-07T11:19:34.469Z,44.35
2022-10-07T11:20:30.091Z,45.41
2022-10-07T11:21:30.969Z,44.65
2022-10-07T11:22:29.977Z,44.96
2022-10-07T11:23:29.974Z,44.15
2022-10-07T11:24:30.139Z,44.65
2022-10-07T11:25:29.973Z,44.62
2022-10-07T11:26:32.338Z,44.57
2022-10-07T11:27:31.009Z,44.55
2022-10-07T11:28:30.060Z,44.37
2022-10-07T11:29:29.966Z,44.51
2022-10-07T11:30:29.883Z,44.55
2022-10-07T11:31:30.016Z,43.82
2022-10-07T11:32:29.968Z,43.64
2022-10-07T11:33:30.121Z,44.43
2022-10-07T11:34:29.922Z,42.20
2022-10-07T11:35:30.116Z,43.68
2022-10-07T11:36:30.140Z,42.99
2022-10-07T11:37:30.081Z,43.01
2022-10-07T11:38:30.292Z,44.89
2022-10-07T11:39:30.021Z,44.89
2022-10-07T11:40:30.029Z,44.42
2022-10-07T11:41:30.257Z,45.94
2022-10-07T11:42:30.521Z,46.33
2022-10-07T11:43:30.904Z,44.39
2022-10-07T11:44:30.069Z,43.82
2022-10-07T11:45:38.234Z,43.08
2022-10-07T11:46:30.785Z,43.83
2022-10-07T11:47:30.331Z,42.96
2022-10-07T11:48:30.191Z,43.65
2022-10-07T11:49:30.322Z,42.96
2022-10-07T11:50:30.203Z,42.47
2022-10-07T11:51:30.259Z,43.60
2022-10-07T11:52:30.272Z,44.53
2022-10-07T11:53:30.171Z,43.42
2022-10-07T11:54:30.404Z,45.61
2022-10-07T11:55:31.220Z,43.50
2022-10-07T11:56:30.176Z,43.97
2022-10-07T11:57:30.217Z,43.91
2022-10-07T11:58:30.390Z,44.43
2022-10-07T11:59:30.227Z,44.62
2022-10-07T12:00:30.408Z,44.06
2022-10-07T12:01:30.467Z,44.45
2022-10-07T12:02:30.760Z,44.57
2022-10-07T12:03:31.206Z,44.60
2022-10-07T12:04:30.964Z,44.65
2022-10-07T12:05:30.543Z,44.69
2022-10-07T12:06:30.722Z,45.79
2022-10-07T12:07:30.980Z,44.87
2022-10-07T12:08:33.099Z,44.55
2022-10-07T12:09:31.331Z,44.60
2022-10-07T12:10:31.813Z,43.50
2022-10-07T12:11:32.973Z,43.70
2022-10-07T12:12:32.584Z,43.70
2022-10-07T12:13:31.124Z,43.36
2022-10-07T12:14:32.078Z,41.67
2022-10-07T12:15:34.286Z,42.57
2022-10-07T12:16:35.755Z,43.77
2022-10-07T12:17:32.976Z,43.40
2022-10-07T12:18:32.659Z,43.62
2022-10-07T12:19:34.278Z,44.13
2022-10-07T12:20:32.311Z,43.79
2022-10-07T12:21:33.776Z,43.70
2022-10-07T12:22:31.829Z,43.91
2022-10-07T12:23:31.174Z,45.26
2022-10-07T12:24:31.870Z,48.88
2022-10-07T12:25:31.781Z,47.56
2022-10-07T12:26:30.122Z,48.85
2022-10-07T12:27:30.352Z,48.03
2022-10-07T12:28:30.425Z,46.85
2022-10-07T12:29:32.467Z,47.96
2022-10-07T12:30:33.248Z,49.22
2022-10-07T12:31:31.526Z,49.59
2022-10-07T12:32:33.331Z,49.44
2022-10-07T12:33:33.141Z,48.31
2022-10-07T12:34:31.640Z,48.19
2022-10-07T12:35:32.403Z,47.57
2022-10-07T12:36:33.196Z,48.16
2022-10-07T12:37:33.215Z,45.53
2022-10-07T12:38:31.836Z,45.93
2022-10-07T12:39:32.812Z,45.63
2022-10-07T12:40:31.737Z,46.29
2022-10-07T12:41:31.491Z,48.46
2022-10-07T12:42:32.313Z,46.91
2022-10-07T12:43:33.190Z,48.24
2022-10-07T12:44:34.588Z,47.74
2022-10-07T12:45:35.193Z,47.84
2022-10-07T12:46:40.402Z,48.24
2022-10-07T12:47:29.995Z,47.79
2022-10-07T12:48:29.219Z,47.22
2022-10-07T12:49:29.168Z,47.32
2022-10-07T12:50:29.185Z,47.77
2022-10-07T12:51:29.130Z,48.24
2022-10-07T12:52:29.115Z,48.31
2022-10-07T12:53:29.183Z,49.40
2022-10-07T12:54:29.105Z,47.62